• Join FlightAware (Why Join?)
  • Login
  • US Flag 
12:15PM EST


 

Airport Tracker/Info


-or-


 

Live Flight TrackerFlight Track Log ✈ FIV576 ✈ 06-Nov-2013 ✈ KSHV - KOKC

Flight Track Log - Related Links

Times and Time Zones

All times are in EST time to prevent confusion due to time zone crossing. See the FIV576 flight status page for this flight to view local times or setup timezone preferences in your user account.

Time Position Orientation Groundspeed Altitude Reporting Facility
EST Latitude Longitude Course Direction KTS MPH feet Rate Location/Type
05:06PM 32.4894 -93.8742 320° Northwest 237 273 3,200  Level Fort Worth Center
05:07PM 32.5331 -93.9417 307° West 270 311 7,400 3,780 Climbing Fort Worth Center
05:08PM 32.5869 -94.0108 313° West 263 303 10,900 3,360 Climbing Fort Worth Center
05:08PM 32.5892 -94.0083 43° Northeast 263 303 10,900 1,080 Level Fort Worth Center
05:09PM 32.6367 -94.0756 310° West 306 352 12,000 1,800 Climbing Fort Worth Center
05:10PM 32.7039 -94.1669 311° West 324 373 14,600 2,460 Climbing Fort Worth Center
05:11PM 32.7581 -94.2442 310° West 324 373 17,000 2,100 Climbing Fort Worth Center
05:12PM 32.8250 -94.3331 312° West 329 379 18,900 1,740 Climbing Fort Worth Center
05:13PM 32.8833 -94.4128 311° West 339 390 20,500 1,200 Climbing Fort Worth Center
05:14PM 32.9567 -94.5167 310° West 367 422 21,400 720 Climbing Fort Worth Center
05:15PM 33.0278 -94.6161 310° West 385 443 22,000 300 Climbing Fort Worth Center
05:16PM 33.0989 -94.7156 310° West 390 449 22,100  Climbing Fort Worth Center
05:17PM 33.1719 -94.8175 311° West 395 455 22,000 -60 Descending Fort Worth Center
05:18PM 33.2408 -94.9147 310° West 395 455 22,000  Level Fort Worth Center
05:19PM 33.3094 -95.0122 310° West 395 455 22,000  Level Fort Worth Center
05:20PM 33.3822 -95.1122 311° West 389 448 22,000  Level Fort Worth Center
05:21PM 33.4486 -95.2103 309° West 389 448 22,000  Level Fort Worth Center
05:22PM 33.5172 -95.3081 310° West 389 448 22,000  Level Fort Worth Center
05:23PM 33.5856 -95.4039 311° West 389 448 22,000  Level Fort Worth Center
05:24PM 33.6558 -95.5019 311° West 389 448 22,000  Level Fort Worth Center
05:25PM 33.7219 -95.5956 310° West 389 448 22,000  Level Fort Worth Center
05:26PM 33.7903 -95.6964 309° West 384 442 22,000  Level Fort Worth Center
05:27PM 33.8583 -95.7928 310° West 389 448 22,000  Level Fort Worth Center
05:28PM 33.9261 -95.8892 310° West 389 448 22,000  Level Fort Worth Center
05:29PM 33.9942 -95.9856 310° West 384 442 22,000  Level Fort Worth Center
05:30PM 34.0619 -96.0847 310° West 384 442 22,000  Level Fort Worth Center
05:31PM 34.1172 -96.1767 306° West 384 442 22,000  Level Fort Worth Center
05:32PM 34.1850 -96.2736 310° West 384 442 22,000  Level Fort Worth Center
05:33PM 34.2525 -96.3708 310° West 384 442 22,000  Level Fort Worth Center
05:34PM 34.3200 -96.4681 310° West 384 442 22,000  Level Fort Worth Center
05:35PM 34.3856 -96.5681 308° West 384 442 22,000  Level Fort Worth Center
05:36PM 34.4550 -96.6681 310° West 384 442 22,000 -300 Level Fort Worth Center
05:37PM 34.5222 -96.7633 311° West 384 442 21,500 -1,380 Descending Fort Worth Center
05:38PM 34.5853 -96.8561 310° West 372 428 19,300 -2,280 Descending Fort Worth Center
05:38PM 34.6125 -96.8964 309° West 366 421 18,500 -1,620 Descending Fort Worth Center
05:39PM 34.6461 -96.9492 308° West 367 422 17,700 -1,680 Descending Fort Worth Center
05:40PM 34.6922 -97.0169 310° West 347 399 16,300 -1,800 Descending Fort Worth Center
05:40PM 34.7069 -97.0397 308° West 362 417 15,900 -1,920 Descending Fort Worth Center
05:41PM 34.7550 -97.1103 310° West 335 386 14,400 -1,740 Descending Fort Worth Center
05:41PM 34.7656 -97.1278 306° West 343 395 14,200 -1,560 Descending Fort Worth Center
05:42PM 34.8053 -97.1833 311° West 327 376 13,000 -1,800 Descending Fort Worth Center
05:42PM 34.8242 -97.2111 310° West 337 388 12,400 -1,800 Descending Fort Worth Center
05:43PM 34.8639 -97.2719 309° West 319 367 11,200 -1,620 Descending Fort Worth Center
05:43PM 34.8828 -97.2919 319° Northwest 326 375 10,800 -1,860 Descending Fort Worth Center
05:44PM 34.9203 -97.3147 334° Northwest 267 307 9,500 -2,040 Descending Fort Worth Center
05:44PM 34.9472 -97.3325 332° Northwest 282 325 8,800 -1,860 Descending Fort Worth Center
05:45PM 34.9933 -97.3603 334° Northwest 248 285 7,500 -1,740 Descending Fort Worth Center
05:45PM 35.0100 -97.3731 328° Northwest 271 312 7,100 -1,140 Descending Fort Worth Center
05:46PM 35.0622 -97.4236 322° Northwest 252 290 6,000 -720 Descending Fort Worth Center
05:47PM 35.0914 -97.4542 319° Northwest 208 239 6,000  Level Fort Worth Center
05:47PM 35.1100 -97.4567 354° North 226 260 6,000 -240 Level Fort Worth Center
05:48PM 35.1456 -97.4542 North 194 223 5,800 -540 Descending Fort Worth Center
05:48PM 35.1664 -97.4517 North 195 224 5,500 -840 Descending Fort Worth Center
05:49PM 35.1914 -97.4797 317° Northwest 211 243 5,000 -840 Descending Fort Worth Center
05:49PM 35.1975 -97.5025 288° West 188 216 4,700 -900 Descending Fort Worth Center
05:50PM 35.1914 -97.5608 263° West 192 221 4,000 -720 Descending Fort Worth Center
05:50PM 35.1933 -97.5686 287° West 173 199 4,000  Level Fort Worth Center
05:51PM 35.2183 -97.5939 320° Northwest 164 189 4,000  Level Fort Worth Center
05:51PM 35.2308 -97.5914 North 159 183 4,000 -600 Level Fort Worth Center
05:52PM 35.2664 -97.5942 356° North 168 193 3,400 -840 Descending Fort Worth Center
05:52PM 35.2789 -97.5917 North 139 160 3,200 -780 Descending Fort Worth Center
05:53PM 35.3122 -97.5942 356° North 173 199 2,700 -900 Descending Fort Worth Center
05:53PM 35.3247 -97.5917 North 156 180 2,300 -780 Descending Fort Worth Center
05:54PM 35.3478 -97.5942 355° North 132 152 2,000 -600 Descending Fort Worth Center
05:56PM 35.3833 -97.6000 North  Level FlightAware Approximate
06:03PM 35.3931 -97.6008 North  Level Estimated